createdAt,value
2023-01-31T00:00:28.720Z,4.38
2023-01-31T00:02:00.438Z,4.28
2023-01-31T00:03:32.338Z,4.25
2023-01-31T00:05:04.406Z,4.15
2023-01-31T00:06:38.882Z,4.03
2023-01-31T00:08:10.608Z,3.60
2023-01-31T00:09:42.351Z,5.32
2023-01-31T00:11:15.431Z,3.75
2023-01-31T00:12:47.133Z,4.10
2023-01-31T00:14:20.761Z,3.80
2023-01-31T00:15:52.474Z,3.78
2023-01-31T00:17:24.165Z,3.15
2023-01-31T00:18:55.845Z,3.65
2023-01-31T00:20:27.503Z,3.28
2023-01-31T00:21:59.333Z,3.33
2023-01-31T00:23:30.972Z,2.97
2023-01-31T00:25:02.668Z,4.32
2023-01-31T00:26:36.187Z,3.58
2023-01-31T00:28:07.956Z,3.78
2023-01-31T00:29:39.608Z,4.82
2023-01-31T00:31:13.602Z,3.10
2023-01-31T00:32:45.249Z,4.13
2023-01-31T00:34:16.981Z,3.42
2023-01-31T00:35:49.019Z,3.67
2023-01-31T00:37:21.823Z,4.20
2023-01-31T00:38:56.033Z,3.28
2023-01-31T00:40:27.735Z,3.60
2023-01-31T00:41:59.340Z,3.90
2023-01-31T00:43:32.464Z,4.78
2023-01-31T00:45:05.031Z,3.55
2023-01-31T00:46:37.553Z,4.18
2023-01-31T00:48:09.525Z,3.80
2023-01-31T00:49:41.203Z,3.33
2023-01-31T00:51:13.060Z,3.65
2023-01-31T00:52:44.731Z,4.03
2023-01-31T00:54:16.431Z,3.58
2023-01-31T00:55:47.985Z,3.63
2023-01-31T00:57:20.021Z,3.97
2023-01-31T00:58:52.755Z,3.72
2023-01-31T01:00:24.689Z,4.03
2023-01-31T01:01:56.891Z,3.83
2023-01-31T01:03:28.565Z,4.28
2023-01-31T01:05:00.173Z,3.85
2023-01-31T01:06:31.841Z,4.50
2023-01-31T01:08:03.559Z,3.65
2023-01-31T01:09:35.587Z,4.50
2023-01-31T01:11:10.370Z,3.47
2023-01-31T01:12:41.918Z,4.13
2023-01-31T01:14:13.602Z,4.00
2023-01-31T01:15:45.897Z,3.83
2023-01-31T01:17:17.552Z,3.88
2023-01-31T01:18:50.257Z,4.97
2023-01-31T01:20:21.818Z,3.78
2023-01-31T01:21:55.795Z,4.53
2023-01-31T01:23:27.389Z,2.90
2023-01-31T01:24:59.823Z,4.40
2023-01-31T01:26:34.401Z,4.07
2023-01-31T01:28:08.294Z,4.00
2023-01-31T01:29:40.844Z,3.88
2023-01-31T01:31:13.925Z,3.83
2023-01-31T01:32:46.593Z,3.60
2023-01-31T01:34:19.974Z,3.70
2023-01-31T01:35:51.560Z,3.30
2023-01-31T01:37:23.436Z,4.15
2023-01-31T01:38:55.574Z,4.25
2023-01-31T01:40:36.358Z,4.63
2023-01-31T01:42:18.292Z,4.10
2023-01-31T01:43:55.787Z,3.20
2023-01-31T01:45:28.115Z,3.33
2023-01-31T01:47:01.266Z,4.20
2023-01-31T01:48:33.041Z,4.88
2023-01-31T01:50:22.036Z,3.78
2023-01-31T01:51:58.037Z,4.00
2023-01-31T01:53:30.717Z,3.92
2023-01-31T01:55:25.720Z,4.68
2023-01-31T01:57:01.344Z,3.58
2023-01-31T01:58:39.669Z,3.90
2023-01-31T02:00:20.671Z,3.90
2023-01-31T02:01:55.328Z,3.75
2023-01-31T02:03:27.382Z,3.50
2023-01-31T02:04:59.235Z,3.88
2023-01-31T02:06:31.069Z,3.85
2023-01-31T02:08:03.274Z,3.72
2023-01-31T02:09:45.561Z,3.90
2023-01-31T02:11:21.471Z,3.45
2023-01-31T02:12:53.411Z,3.53
2023-01-31T02:14:27.016Z,3.88
2023-01-31T02:15:59.084Z,4.40
2023-01-31T02:17:31.069Z,3.92
2023-01-31T02:19:04.913Z,3.58
2023-01-31T02:21:01.271Z,3.65
2023-01-31T02:23:12.049Z,4.00
2023-01-31T02:25:22.301Z,3.42
2023-01-31T02:27:06.906Z,3.58
2023-01-31T02:28:56.881Z,4.28
2023-01-31T02:30:31.350Z,3.30
2023-01-31T02:32:36.858Z,3.90
2023-01-31T02:34:21.658Z,3.15
2023-01-31T02:36:20.689Z,3.38
2023-01-31T02:38:30.212Z,4.10
2023-01-31T02:40:15.311Z,3.20
2023-01-31T02:42:10.944Z,3.63
2023-01-31T02:44:12.671Z,4.30
2023-01-31T02:46:16.801Z,4.18
2023-01-31T02:48:08.069Z,3.70
2023-01-31T02:50:11.460Z,3.47
2023-01-31T02:52:09.081Z,3.20
2023-01-31T02:54:09.076Z,3.60
2023-01-31T02:56:03.452Z,3.65
2023-01-31T02:57:38.580Z,4.00
2023-01-31T02:59:26.902Z,3.22
2023-01-31T03:01:04.159Z,4.05
2023-01-31T03:02:36.633Z,3.42
2023-01-31T03:04:11.571Z,3.58
2023-01-31T03:05:44.304Z,4.13
2023-01-31T03:07:26.547Z,4.05
2023-01-31T03:09:11.743Z,3.70
2023-01-31T03:10:53.276Z,4.10
2023-01-31T03:12:36.418Z,3.75
2023-01-31T03:14:08.035Z,4.13
2023-01-31T03:16:14.371Z,3.67
2023-01-31T03:18:06.261Z,3.67
2023-01-31T03:19:52.141Z,3.40
2023-01-31T03:21:39.385Z,3.22
2023-01-31T03:23:16.853Z,4.38
2023-01-31T03:24:50.703Z,3.53
2023-01-31T03:26:24.145Z,3.85
2023-01-31T03:27:59.629Z,3.42
2023-01-31T03:29:36.459Z,5.30
2023-01-31T03:31:26.722Z,2.92
2023-01-31T03:33:12.754Z,3.88
2023-01-31T03:34:45.335Z,4.07
2023-01-31T03:36:41.738Z,4.28
2023-01-31T03:38:37.728Z,4.18
2023-01-31T03:40:26.678Z,3.85
2023-01-31T03:42:07.565Z,3.33
2023-01-31T03:43:42.219Z,3.78
2023-01-31T03:45:23.462Z,4.05
2023-01-31T03:47:03.386Z,3.63
2023-01-31T03:48:39.551Z,3.67
2023-01-31T03:51:58.710Z,3.75
2023-01-31T03:53:36.199Z,3.50
2023-01-31T03:55:15.776Z,3.78
2023-01-31T03:57:00.209Z,3.80
2023-01-31T03:58:38.429Z,3.55
2023-01-31T04:00:15.420Z,3.80
2023-01-31T04:01:55.683Z,4.40
2023-01-31T04:03:32.407Z,3.80
2023-01-31T04:05:10.643Z,4.03
2023-01-31T04:06:45.484Z,3.17
2023-01-31T04:08:17.266Z,3.60
2023-01-31T04:09:55.712Z,3.45
2023-01-31T04:11:28.135Z,3.55
2023-01-31T04:12:59.820Z,4.05
2023-01-31T04:14:32.101Z,3.83
2023-01-31T04:16:04.311Z,3.75
2023-01-31T04:17:36.156Z,3.63
2023-01-31T04:19:07.739Z,3.88
2023-01-31T04:20:39.327Z,4.25
2023-01-31T04:22:10.934Z,3.75
2023-01-31T04:23:42.499Z,4.25
2023-01-31T04:25:14.161Z,3.80
2023-01-31T04:26:45.793Z,3.55
2023-01-31T04:28:17.419Z,3.88
2023-01-31T04:29:49.070Z,3.20
2023-01-31T04:31:21.019Z,3.80
2023-01-31T04:32:52.662Z,3.38
2023-01-31T04:34:24.228Z,4.15
2023-01-31T04:35:56.031Z,3.17
2023-01-31T04:39:33.233Z,3.00
2023-01-31T04:41:05.031Z,3.53
2023-01-31T04:42:36.677Z,3.22
2023-01-31T04:44:08.243Z,3.65
2023-01-31T04:45:39.863Z,3.85
2023-01-31T04:47:11.532Z,3.50
2023-01-31T04:48:43.124Z,4.40
2023-01-31T04:50:14.772Z,4.25
2023-01-31T04:51:46.368Z,4.15
2023-01-31T04:53:17.991Z,4.05
2023-01-31T04:54:49.751Z,4.10
2023-01-31T04:56:22.330Z,5.28
2023-01-31T04:57:54.165Z,4.05
2023-01-31T04:59:25.705Z,4.43
2023-01-31T05:00:57.477Z,3.53
2023-01-31T05:02:31.907Z,2.97
2023-01-31T05:04:03.721Z,4.22
2023-01-31T05:05:36.477Z,4.63
2023-01-31T05:07:08.595Z,3.33
2023-01-31T05:08:40.277Z,3.58
2023-01-31T05:10:12.699Z,3.92
2023-01-31T05:11:44.368Z,3.85
2023-01-31T05:13:16.286Z,3.63
2023-01-31T05:14:47.971Z,4.43
2023-01-31T05:16:19.901Z,5.03
2023-01-31T05:17:53.284Z,5.07
2023-01-31T05:19:25.078Z,5.15
2023-01-31T05:20:56.693Z,5.15
2023-01-31T05:22:28.485Z,5.85
2023-01-31T05:24:00.187Z,4.53
2023-01-31T05:25:31.835Z,5.22
2023-01-31T05:27:03.902Z,4.97
2023-01-31T05:28:36.332Z,3.67
2023-01-31T05:30:08.974Z,4.07
2023-01-31T05:31:40.777Z,4.53
2023-01-31T05:33:12.903Z,4.63
2023-01-31T05:34:44.472Z,5.13
2023-01-31T05:36:16.090Z,5.88
2023-01-31T05:37:47.778Z,4.85
2023-01-31T05:39:19.644Z,5.30
2023-01-31T05:40:51.530Z,5.57
2023-01-31T05:42:23.145Z,5.30
2023-01-31T05:43:54.788Z,5.28
2023-01-31T05:45:26.945Z,4.90
2023-01-31T05:46:58.777Z,4.55
2023-01-31T05:48:30.401Z,5.00
2023-01-31T05:50:03.086Z,5.05
2023-01-31T05:51:34.864Z,5.28
2023-01-31T05:53:06.561Z,4.88
2023-01-31T05:54:38.149Z,4.95
2023-01-31T05:56:09.771Z,5.10
2023-01-31T05:57:41.417Z,4.32
2023-01-31T05:59:13.116Z,4.60
2023-01-31T06:00:44.693Z,4.65
2023-01-31T06:02:16.461Z,4.97
2023-01-31T06:03:48.141Z,4.30
2023-01-31T06:05:20.074Z,5.32
2023-01-31T06:06:51.751Z,5.30
2023-01-31T06:08:23.374Z,6.03
2023-01-31T06:09:55.004Z,5.47
2023-01-31T06:11:26.859Z,5.95
2023-01-31T06:12:58.552Z,5.60
2023-01-31T06:14:30.766Z,5.85
2023-01-31T06:16:02.576Z,6.60
2023-01-31T06:17:34.464Z,6.90
2023-01-31T06:19:06.138Z,6.78
2023-01-31T06:20:38.835Z,7.20
2023-01-31T06:22:10.552Z,6.43
2023-01-31T06:23:46.088Z,6.57
2023-01-31T06:25:17.954Z,6.35
2023-01-31T06:26:49.838Z,5.85
2023-01-31T06:28:22.998Z,5.80
2023-01-31T06:29:54.670Z,6.72
2023-01-31T06:31:26.432Z,8.25
2023-01-31T06:33:00.829Z,6.30
2023-01-31T06:34:32.940Z,5.20
2023-01-31T06:36:04.916Z,5.22
2023-01-31T06:37:36.453Z,4.25
2023-01-31T06:39:08.009Z,4.47
2023-01-31T06:40:39.599Z,4.25
2023-01-31T06:42:11.236Z,5.07
2023-01-31T06:43:42.789Z,5.63
2023-01-31T06:45:14.467Z,4.95
2023-01-31T06:46:45.988Z,6.95
2023-01-31T06:48:19.498Z,7.63
2023-01-31T06:49:51.146Z,6.65
2023-01-31T06:51:22.822Z,6.43
2023-01-31T06:52:54.624Z,6.68
2023-01-31T06:54:26.258Z,5.40
2023-01-31T06:55:58.033Z,6.15
2023-01-31T06:57:30.274Z,5.28
2023-01-31T06:59:01.990Z,4.70
2023-01-31T07:00:33.629Z,5.43
2023-01-31T07:02:05.279Z,4.72
2023-01-31T07:03:37.558Z,5.57
2023-01-31T07:05:09.333Z,6.07
2023-01-31T07:06:40.911Z,5.32
2023-01-31T07:08:13.851Z,5.85
2023-01-31T07:09:45.497Z,5.55
2023-01-31T07:11:17.353Z,4.60
2023-01-31T07:12:48.998Z,6.45
2023-01-31T07:14:20.677Z,4.90
2023-01-31T07:15:52.255Z,6.32
2023-01-31T07:17:23.922Z,5.85
2023-01-31T07:18:56.439Z,6.75
2023-01-31T07:20:28.174Z,7.13
2023-01-31T07:21:59.821Z,8.25
2023-01-31T07:23:31.404Z,5.65
2023-01-31T07:25:03.030Z,6.57
2023-01-31T07:26:35.176Z,8.20
2023-01-31T07:28:06.861Z,8.27
2023-01-31T07:29:38.562Z,7.22
2023-01-31T07:31:14.663Z,6.43
2023-01-31T07:34:19.012Z,5.95
2023-01-31T07:35:51.357Z,5.72
2023-01-31T07:37:22.948Z,7.53
2023-01-31T07:38:56.457Z,10.82
2023-01-31T07:40:28.165Z,15.90
2023-01-31T07:41:59.919Z,18.63
2023-01-31T07:43:32.351Z,21.85
2023-01-31T07:45:21.643Z,20.55
2023-01-31T07:46:56.465Z,14.93
2023-01-31T07:48:28.171Z,8.55
2023-01-31T07:49:59.797Z,6.13
2023-01-31T07:51:31.398Z,5.95
2023-01-31T07:53:02.982Z,5.53
2023-01-31T07:54:34.616Z,3.92
2023-01-31T07:56:15.329Z,5.53
2023-01-31T07:57:47.289Z,7.28
2023-01-31T07:59:19.208Z,6.40
2023-01-31T08:01:12.124Z,7.60
2023-01-31T08:03:19.134Z,7.78
2023-01-31T08:04:50.813Z,8.52
2023-01-31T08:06:22.462Z,6.57
2023-01-31T08:08:10.432Z,6.40
2023-01-31T08:09:43.601Z,6.70
2023-01-31T08:11:15.253Z,4.32
2023-01-31T08:12:49.399Z,4.70
2023-01-31T08:14:25.664Z,4.72
2023-01-31T08:15:57.548Z,3.67
2023-01-31T08:17:29.559Z,4.00
2023-01-31T08:19:01.304Z,3.70
2023-01-31T08:20:33.293Z,4.22
2023-01-31T08:22:05.316Z,3.97
2023-01-31T08:23:38.215Z,5.03
2023-01-31T08:25:10.225Z,3.97
2023-01-31T08:26:42.649Z,4.70
2023-01-31T08:28:15.207Z,3.78
2023-01-31T08:29:46.800Z,3.40
2023-01-31T08:31:24.347Z,3.88
2023-01-31T08:32:56.539Z,3.65
2023-01-31T08:34:28.252Z,3.63
2023-01-31T08:36:13.216Z,4.25
2023-01-31T08:37:44.878Z,3.67
2023-01-31T08:39:16.493Z,4.50
2023-01-31T08:40:48.305Z,4.13
2023-01-31T08:42:19.867Z,3.88
2023-01-31T08:43:56.703Z,4.47
2023-01-31T08:45:30.376Z,2.83
2023-01-31T08:47:02.679Z,3.58
2023-01-31T08:48:35.798Z,3.65
2023-01-31T08:50:13.159Z,2.85
2023-01-31T08:51:53.801Z,3.13
2023-01-31T08:53:25.458Z,3.63
2023-01-31T08:54:57.021Z,3.72
2023-01-31T08:56:28.973Z,3.70
2023-01-31T08:58:02.071Z,3.88
2023-01-31T08:59:33.642Z,3.25
2023-01-31T09:01:08.018Z,3.38
2023-01-31T09:02:39.766Z,4.47
2023-01-31T09:04:11.464Z,3.22
2023-01-31T09:05:43.324Z,3.10
2023-01-31T09:07:14.984Z,4.20
2023-01-31T09:08:46.997Z,2.88
2023-01-31T09:10:19.803Z,3.90
2023-01-31T09:11:51.625Z,3.90
2023-01-31T09:13:24.589Z,3.42
2023-01-31T09:14:56.228Z,3.35
2023-01-31T09:16:28.023Z,3.55
2023-01-31T09:17:59.746Z,3.83
2023-01-31T09:19:31.329Z,3.13
2023-01-31T09:21:08.657Z,3.05
2023-01-31T09:22:40.345Z,3.20
2023-01-31T09:24:12.120Z,4.53
2023-01-31T09:25:47.555Z,4.55
2023-01-31T09:27:19.791Z,3.28
2023-01-31T09:28:51.429Z,3.17
2023-01-31T09:30:23.107Z,2.95
2023-01-31T09:31:54.946Z,3.50
2023-01-31T09:33:26.570Z,3.53
2023-01-31T09:34:58.883Z,3.95
2023-01-31T09:36:30.518Z,3.33
2023-01-31T09:38:02.149Z,3.05
2023-01-31T09:39:34.335Z,3.00
2023-01-31T09:41:23.305Z,2.90
2023-01-31T09:42:56.466Z,4.13
2023-01-31T09:44:41.859Z,3.65
2023-01-31T09:46:17.820Z,2.83
2023-01-31T09:47:52.575Z,2.95
2023-01-31T09:49:31.788Z,3.63
2023-01-31T09:51:05.648Z,3.17
2023-01-31T09:52:38.587Z,2.65
2023-01-31T09:54:21.061Z,3.20
2023-01-31T09:56:06.949Z,3.35
2023-01-31T09:57:51.023Z,2.65
2023-01-31T09:59:41.134Z,3.63
2023-01-31T10:01:47.027Z,3.28
2023-01-31T10:03:36.914Z,4.25
2023-01-31T10:05:23.061Z,2.90
2023-01-31T10:07:03.655Z,2.70
2023-01-31T10:08:53.211Z,2.90
2023-01-31T10:11:00.608Z,3.10
2023-01-31T10:12:48.830Z,2.95
2023-01-31T10:14:42.100Z,3.17
2023-01-31T10:16:29.199Z,2.40
2023-01-31T10:18:15.599Z,3.95
2023-01-31T10:19:59.573Z,3.17
2023-01-31T10:21:53.220Z,2.88
2023-01-31T10:23:34.041Z,3.30
2023-01-31T10:25:21.810Z,3.08
2023-01-31T10:26:58.592Z,3.55
2023-01-31T10:28:36.543Z,3.47
2023-01-31T10:30:18.025Z,2.97
2023-01-31T10:32:01.296Z,3.58
2023-01-31T10:33:53.901Z,2.55
2023-01-31T10:35:41.846Z,2.60
2023-01-31T10:37:39.526Z,4.03
2023-01-31T10:39:30.186Z,2.50
2023-01-31T10:41:12.322Z,3.50
2023-01-31T10:42:52.765Z,3.20
2023-01-31T10:44:34.588Z,2.30
2023-01-31T10:46:12.696Z,2.65
2023-01-31T10:47:51.785Z,3.00
2023-01-31T10:49:25.824Z,2.28
2023-01-31T10:51:03.192Z,3.58
2023-01-31T10:52:55.310Z,2.25
2023-01-31T10:54:38.057Z,2.58
2023-01-31T10:56:33.481Z,2.97
2023-01-31T10:58:08.311Z,2.95
2023-01-31T10:59:45.313Z,2.35
2023-01-31T11:01:16.989Z,2.47
2023-01-31T11:02:48.908Z,2.05
2023-01-31T11:04:29.485Z,2.78
2023-01-31T11:06:01.429Z,2.33
2023-01-31T11:07:34.473Z,2.45
2023-01-31T11:09:06.167Z,3.40
2023-01-31T11:10:51.455Z,2.10
2023-01-31T11:12:52.191Z,2.83
2023-01-31T11:14:23.882Z,2.47
2023-01-31T11:15:55.878Z,2.78
2023-01-31T11:17:28.104Z,2.67
2023-01-31T11:19:03.304Z,2.13
2023-01-31T11:20:44.485Z,3.00
2023-01-31T11:22:25.392Z,2.05
2023-01-31T11:24:15.685Z,2.33
2023-01-31T11:25:49.591Z,2.35
2023-01-31T11:27:42.293Z,2.33
2023-01-31T11:29:22.765Z,2.88
2023-01-31T11:30:55.694Z,2.17
2023-01-31T11:32:35.146Z,2.13
2023-01-31T11:34:29.964Z,2.65
2023-01-31T11:36:08.698Z,1.75
2023-01-31T11:38:09.399Z,2.33
2023-01-31T11:39:41.176Z,2.75
2023-01-31T11:41:37.626Z,2.65
2023-01-31T11:43:25.273Z,2.30
2023-01-31T11:45:16.197Z,2.22
2023-01-31T11:47:18.450Z,3.05
2023-01-31T11:48:50.083Z,2.65
2023-01-31T11:50:22.129Z,2.95
2023-01-31T11:51:54.496Z,2.85
2023-01-31T11:53:26.095Z,3.38
2023-01-31T11:55:06.650Z,3.65
2023-01-31T11:56:38.466Z,2.47
2023-01-31T11:58:22.220Z,2.88
2023-01-31T11:59:56.562Z,3.75
2023-01-31T12:01:28.802Z,2.80
2023-01-31T12:03:14.790Z,3.65
2023-01-31T12:04:46.553Z,2.65
2023-01-31T12:06:38.818Z,2.90
2023-01-31T12:08:36.355Z,2.13
2023-01-31T12:10:45.702Z,2.85
2023-01-31T12:12:25.184Z,2.47
2023-01-31T12:14:12.146Z,4.47
2023-01-31T12:15:52.684Z,2.90
2023-01-31T12:17:24.917Z,2.58
2023-01-31T12:19:11.633Z,3.08
2023-01-31T12:20:52.638Z,2.03
2023-01-31T12:22:38.253Z,3.28
2023-01-31T12:24:30.799Z,4.13
2023-01-31T12:26:13.685Z,2.70
2023-01-31T12:28:32.974Z,2.72
2023-01-31T12:30:13.427Z,3.08
2023-01-31T12:32:03.587Z,3.13
2023-01-31T12:33:41.267Z,3.33
2023-01-31T12:35:48.627Z,2.60
2023-01-31T12:37:44.855Z,2.95
2023-01-31T12:39:47.195Z,2.75
2023-01-31T12:41:21.837Z,2.72
2023-01-31T12:43:03.051Z,3.60
2023-01-31T12:44:59.983Z,2.03
2023-01-31T12:47:08.482Z,2.35
2023-01-31T12:49:09.003Z,2.60
2023-01-31T12:51:06.406Z,2.58
2023-01-31T12:53:15.439Z,3.53
2023-01-31T12:54:47.144Z,3.05
2023-01-31T12:56:30.657Z,2.72
2023-01-31T12:58:17.245Z,2.63
2023-01-31T13:00:10.938Z,1.92
2023-01-31T13:01:52.246Z,3.10
2023-01-31T13:04:09.632Z,2.28
2023-01-31T13:05:51.695Z,3.20
2023-01-31T13:07:45.891Z,3.00
2023-01-31T13:09:21.622Z,1.85
2023-01-31T13:11:07.796Z,2.28
2023-01-31T13:12:40.248Z,2.25
2023-01-31T13:14:21.277Z,2.40
2023-01-31T13:16:03.426Z,2.65
2023-01-31T13:17:39.563Z,2.42
2023-01-31T13:19:34.972Z,2.67
2023-01-31T13:21:10.807Z,2.67
2023-01-31T13:22:49.707Z,2.72
2023-01-31T13:24:37.933Z,3.08
2023-01-31T13:26:23.199Z,3.10
2023-01-31T13:28:13.456Z,3.72
2023-01-31T13:29:56.668Z,3.38
2023-01-31T13:31:32.606Z,3.40
2023-01-31T13:33:18.531Z,3.92
2023-01-31T13:34:59.240Z,3.47
2023-01-31T13:36:45.755Z,2.45
2023-01-31T13:38:21.000Z,3.60
2023-01-31T13:39:58.525Z,3.65
2023-01-31T13:41:34.899Z,3.67
2023-01-31T13:43:14.058Z,3.50
2023-01-31T13:44:47.415Z,3.25
2023-01-31T13:46:24.774Z,3.03
2023-01-31T13:48:03.596Z,4.22
2023-01-31T13:49:39.728Z,2.78
2023-01-31T13:51:23.278Z,2.70
2023-01-31T13:52:58.430Z,2.47
2023-01-31T13:54:37.643Z,4.10
2023-01-31T13:56:16.177Z,3.75
2023-01-31T13:58:00.190Z,3.10
2023-01-31T13:59:35.054Z,3.58
2023-01-31T14:01:15.532Z,3.58
2023-01-31T14:03:20.175Z,3.95
2023-01-31T14:04:52.170Z,4.18
2023-01-31T14:06:23.767Z,4.22
2023-01-31T14:08:33.230Z,3.33
2023-01-31T14:10:04.974Z,4.55
2023-01-31T14:11:44.092Z,4.15
2023-01-31T14:13:37.396Z,4.55
2023-01-31T14:15:48.846Z,2.90
2023-01-31T14:17:29.578Z,3.67
2023-01-31T14:19:01.359Z,3.58
2023-01-31T14:20:32.893Z,4.00
2023-01-31T14:22:13.854Z,3.47
2023-01-31T14:23:47.426Z,3.95
2023-01-31T14:25:42.242Z,3.75
2023-01-31T14:27:21.492Z,3.60
2023-01-31T14:28:53.716Z,3.47
2023-01-31T14:30:38.958Z,3.80
2023-01-31T14:32:17.117Z,3.67
2023-01-31T14:33:50.264Z,3.45
2023-01-31T14:35:33.945Z,3.65
2023-01-31T14:37:08.390Z,3.47
2023-01-31T14:39:14.093Z,3.30
2023-01-31T14:41:33.173Z,3.83
2023-01-31T14:43:55.284Z,3.10
2023-01-31T14:45:38.809Z,2.47
2023-01-31T14:47:36.719Z,2.90
2023-01-31T14:49:39.962Z,2.75
2023-01-31T14:51:32.347Z,3.65
2023-01-31T14:53:14.225Z,3.50
2023-01-31T14:55:21.973Z,3.03
2023-01-31T14:58:31.821Z,3.83
2023-01-31T15:00:12.598Z,3.10
2023-01-31T15:01:44.311Z,3.35
2023-01-31T15:03:36.029Z,2.92
2023-01-31T15:05:16.029Z,3.53
2023-01-31T15:06:50.545Z,3.90
2023-01-31T15:08:22.216Z,3.65
2023-01-31T15:09:56.757Z,3.08
2023-01-31T15:11:43.424Z,3.60
2023-01-31T15:13:38.509Z,3.90
2023-01-31T15:15:34.219Z,2.92
2023-01-31T15:17:33.731Z,3.05
2023-01-31T15:19:20.492Z,4.18
2023-01-31T15:20:57.501Z,3.60
2023-01-31T15:22:30.469Z,3.80
2023-01-31T15:24:02.923Z,3.70
2023-01-31T15:25:46.099Z,2.63
2023-01-31T15:27:25.416Z,3.50
2023-01-31T15:28:58.037Z,3.58
2023-01-31T15:30:35.283Z,3.92
2023-01-31T15:32:19.624Z,4.70
2023-01-31T15:33:54.041Z,2.95
2023-01-31T15:35:59.389Z,3.03
2023-01-31T15:37:34.345Z,2.85
2023-01-31T15:39:30.747Z,3.33
2023-01-31T15:41:23.132Z,3.15
2023-01-31T15:43:15.007Z,3.65
2023-01-31T15:44:46.878Z,3.85
2023-01-31T15:46:32.685Z,3.33
2023-01-31T15:48:16.186Z,3.80
2023-01-31T15:49:48.074Z,3.42
2023-01-31T15:51:20.752Z,2.90
2023-01-31T15:52:55.338Z,4.43
2023-01-31T15:54:27.014Z,3.70
2023-01-31T15:56:03.390Z,2.97
2023-01-31T15:57:42.574Z,4.55
2023-01-31T15:59:15.005Z,3.40
2023-01-31T16:00:52.610Z,4.38
2023-01-31T16:02:31.155Z,3.22
2023-01-31T16:04:02.988Z,3.35
2023-01-31T16:05:37.579Z,3.35
2023-01-31T16:07:17.049Z,4.75
2023-01-31T16:09:04.337Z,3.85
2023-01-31T16:10:36.656Z,4.18
2023-01-31T16:12:10.370Z,3.50
2023-01-31T16:13:43.438Z,3.50
2023-01-31T16:15:22.603Z,3.20
2023-01-31T16:16:56.920Z,2.97
2023-01-31T16:18:28.927Z,3.72
2023-01-31T16:20:00.724Z,3.80
2023-01-31T16:21:39.656Z,4.03
2023-01-31T16:23:29.699Z,4.20
2023-01-31T16:25:04.559Z,3.67
2023-01-31T16:26:39.718Z,4.45
2023-01-31T16:28:12.601Z,3.83
2023-01-31T16:29:49.522Z,3.58
2023-01-31T16:31:23.626Z,3.90
2023-01-31T16:32:56.529Z,3.53
2023-01-31T16:34:31.724Z,2.55
2023-01-31T16:36:13.946Z,3.50
2023-01-31T16:38:02.215Z,4.00
2023-01-31T16:39:48.226Z,3.72
2023-01-31T16:41:40.405Z,4.00
2023-01-31T16:43:21.016Z,3.75
2023-01-31T16:44:53.101Z,3.63
2023-01-31T16:46:38.841Z,3.35
2023-01-31T16:48:25.962Z,3.85
2023-01-31T16:50:36.585Z,3.92
2023-01-31T16:52:26.609Z,3.60
2023-01-31T16:54:20.696Z,3.47
2023-01-31T16:56:14.182Z,3.47
2023-01-31T16:57:46.652Z,3.35
2023-01-31T16:59:33.531Z,4.30
2023-01-31T17:01:14.232Z,3.72
2023-01-31T17:02:46.030Z,4.55
2023-01-31T17:04:51.949Z,4.55
2023-01-31T17:06:24.384Z,3.55
2023-01-31T17:07:58.573Z,4.10
2023-01-31T17:09:30.512Z,4.40
2023-01-31T17:11:02.372Z,3.67
2023-01-31T17:12:38.446Z,4.30
2023-01-31T17:15:42.395Z,3.78
2023-01-31T17:17:20.623Z,5.70
2023-01-31T17:18:56.668Z,4.38
2023-01-31T17:20:28.373Z,4.70
2023-01-31T17:22:00.354Z,4.47
2023-01-31T17:23:32.086Z,5.00
2023-01-31T17:25:14.589Z,4.05
2023-01-31T17:26:46.436Z,4.35
2023-01-31T17:28:18.151Z,4.13
2023-01-31T17:29:49.853Z,4.20
2023-01-31T17:31:23.689Z,4.97
2023-01-31T17:32:57.129Z,4.93
2023-01-31T17:34:28.802Z,4.85
2023-01-31T17:36:00.496Z,3.85
2023-01-31T17:37:32.280Z,3.85
2023-01-31T17:39:03.918Z,4.30
2023-01-31T17:40:38.116Z,4.63
2023-01-31T17:42:21.353Z,4.95
2023-01-31T17:43:53.156Z,3.72
2023-01-31T17:45:25.721Z,4.35
2023-01-31T17:46:57.669Z,3.42
2023-01-31T17:48:29.690Z,3.92
2023-01-31T17:50:01.410Z,6.32
2023-01-31T17:51:33.184Z,4.50
2023-01-31T17:53:05.030Z,4.50
2023-01-31T17:54:36.828Z,5.47
2023-01-31T17:56:08.567Z,3.97
2023-01-31T17:57:40.751Z,4.00
2023-01-31T17:59:25.223Z,4.45
2023-01-31T18:00:58.199Z,3.72
2023-01-31T18:02:29.912Z,3.70
2023-01-31T18:04:03.623Z,3.65
2023-01-31T18:05:39.105Z,3.08
2023-01-31T18:07:16.222Z,3.83
2023-01-31T18:08:48.657Z,3.47
2023-01-31T18:10:20.513Z,4.20
2023-01-31T18:11:52.273Z,4.05
2023-01-31T18:13:23.902Z,4.18
2023-01-31T18:14:56.222Z,4.38
2023-01-31T18:16:28.573Z,4.75
2023-01-31T18:18:00.364Z,4.38
2023-01-31T18:19:32.090Z,4.93
2023-01-31T18:21:05.547Z,3.85
2023-01-31T18:22:37.483Z,4.65
2023-01-31T18:24:10.896Z,3.55
2023-01-31T18:25:44.147Z,5.00
2023-01-31T18:27:16.159Z,4.07
2023-01-31T18:28:49.014Z,5.38
2023-01-31T18:30:21.649Z,5.07
2023-01-31T18:32:02.481Z,3.78
2023-01-31T18:33:34.399Z,3.30
2023-01-31T18:35:06.804Z,4.25
2023-01-31T18:36:39.642Z,4.03
2023-01-31T18:38:13.481Z,5.18
2023-01-31T18:39:48.017Z,5.45
2023-01-31T18:41:21.479Z,4.43
2023-01-31T18:42:53.094Z,3.90
2023-01-31T18:44:25.149Z,4.18
2023-01-31T18:45:57.002Z,3.85
2023-01-31T18:47:28.713Z,3.95
2023-01-31T18:49:00.446Z,3.80
2023-01-31T18:50:32.247Z,3.72
2023-01-31T18:52:06.324Z,3.72
2023-01-31T18:53:44.233Z,4.10
2023-01-31T18:55:16.151Z,4.22
2023-01-31T18:56:47.856Z,4.28
2023-01-31T18:58:19.499Z,4.35
2023-01-31T18:59:51.121Z,2.90
2023-01-31T19:01:26.181Z,4.10
2023-01-31T19:02:58.538Z,4.00
2023-01-31T19:04:30.214Z,4.80
2023-01-31T19:06:10.195Z,3.72
2023-01-31T19:07:42.267Z,4.97
2023-01-31T19:09:14.053Z,4.05
2023-01-31T19:10:45.840Z,3.97
2023-01-31T19:12:17.569Z,4.38
2023-01-31T19:13:49.325Z,4.38
2023-01-31T19:15:21.126Z,3.60
2023-01-31T19:16:53.114Z,4.82
2023-01-31T19:18:24.879Z,4.13
2023-01-31T19:19:56.696Z,4.88
2023-01-31T19:21:31.321Z,4.15
2023-01-31T19:23:03.540Z,3.67
2023-01-31T19:24:35.213Z,4.25
2023-01-31T19:26:06.932Z,3.72
2023-01-31T19:27:40.596Z,7.00
2023-01-31T19:29:16.303Z,4.63
2023-01-31T19:30:48.193Z,3.50
2023-01-31T19:32:20.181Z,3.83
2023-01-31T19:33:59.947Z,4.60
2023-01-31T19:35:32.235Z,3.00
2023-01-31T19:37:04.228Z,4.10
2023-01-31T19:38:35.998Z,3.28
2023-01-31T19:40:08.823Z,2.67
2023-01-31T19:41:42.404Z,3.78
2023-01-31T19:43:14.289Z,3.38
2023-01-31T19:44:46.312Z,5.20
2023-01-31T19:46:18.586Z,4.72
2023-01-31T19:47:50.262Z,3.80
2023-01-31T19:49:24.545Z,4.43
2023-01-31T19:50:57.247Z,4.50
2023-01-31T19:52:32.083Z,4.03
2023-01-31T19:54:04.095Z,4.00
2023-01-31T19:55:35.945Z,3.35
2023-01-31T19:57:07.688Z,4.18
2023-01-31T19:58:39.757Z,3.08
2023-01-31T20:00:12.359Z,3.63
2023-01-31T20:01:44.305Z,5.18
2023-01-31T20:03:16.062Z,3.80
2023-01-31T20:04:52.529Z,3.60
2023-01-31T20:06:27.355Z,3.85
2023-01-31T20:07:59.566Z,4.13
2023-01-31T20:09:31.407Z,4.22
2023-01-31T20:11:04.263Z,4.00
2023-01-31T20:12:36.192Z,3.58
2023-01-31T20:14:08.036Z,4.53
2023-01-31T20:15:42.620Z,4.13
2023-01-31T20:17:14.335Z,3.65
2023-01-31T20:18:46.183Z,4.30
2023-01-31T20:20:18.154Z,4.75
2023-01-31T20:21:50.236Z,3.80
2023-01-31T20:23:22.364Z,4.25
2023-01-31T20:24:54.937Z,3.83
2023-01-31T20:26:29.412Z,4.25
2023-01-31T20:28:02.431Z,3.40
2023-01-31T20:29:34.042Z,3.03
2023-01-31T20:31:08.368Z,3.95
2023-01-31T20:32:40.205Z,3.28
2023-01-31T20:34:11.961Z,3.22
2023-01-31T20:35:44.359Z,5.13
2023-01-31T20:37:16.159Z,4.43
2023-01-31T20:38:47.805Z,3.45
2023-01-31T20:40:20.017Z,3.67
2023-01-31T20:41:51.944Z,4.50
2023-01-31T20:43:25.917Z,3.83
2023-01-31T20:44:57.548Z,4.55
2023-01-31T20:46:29.356Z,3.58
2023-01-31T20:48:01.258Z,3.80
2023-01-31T20:49:33.062Z,4.18
2023-01-31T20:51:05.581Z,4.38
2023-01-31T20:52:37.300Z,3.92
2023-01-31T20:54:09.009Z,4.03
2023-01-31T20:55:40.739Z,4.38
2023-01-31T20:57:12.566Z,3.78
2023-01-31T20:58:44.512Z,4.05
2023-01-31T21:00:21.206Z,4.32
2023-01-31T21:01:53.143Z,4.07
2023-01-31T21:03:25.445Z,3.83
2023-01-31T21:04:57.339Z,3.65
2023-01-31T21:06:29.153Z,4.75
2023-01-31T21:08:00.906Z,3.80
2023-01-31T21:09:32.823Z,5.10
2023-01-31T21:11:08.207Z,4.47
2023-01-31T21:12:40.063Z,4.70
2023-01-31T21:14:11.729Z,3.95
2023-01-31T21:15:52.432Z,4.78
2023-01-31T21:17:37.811Z,3.80
2023-01-31T21:19:11.179Z,4.63
2023-01-31T21:20:43.771Z,4.32
2023-01-31T21:22:15.959Z,4.72
2023-01-31T21:23:47.649Z,4.20
2023-01-31T21:25:19.242Z,4.13
2023-01-31T21:26:51.197Z,3.80
2023-01-31T21:28:26.529Z,3.45
2023-01-31T21:29:58.299Z,4.65
2023-01-31T21:31:30.658Z,4.22
2023-01-31T21:33:02.451Z,5.03
2023-01-31T21:34:34.243Z,4.55
2023-01-31T21:36:10.701Z,4.25
2023-01-31T21:37:42.754Z,4.00
2023-01-31T21:39:14.696Z,3.20
2023-01-31T21:40:46.562Z,4.45
2023-01-31T21:42:19.575Z,4.72
2023-01-31T21:43:51.292Z,4.13